KLWV/LWV METAR and TAF weather

Enter ICAO airport designator
Station Type Date Time Source
KLWV METAR 2021/02/28 02:53 UTC NOAA

KLWV 280253Z AUTO 11004KT 10SM OVC013 10/08 A3003 RMK AO2 SLP169 T01000078 56014


Station Type Date Time Source
KLWV Decoded METAR 2021/02/28 02:53 UTC NOAA

LAWRENCEVILLE-VINCENNES INTERNATIONAL , IL, United States (KLWV) 38-46N 87-36W 131M
Feb 27, 2021 - 09:53 PM EST / 2021.02.28 0253 UTC
Wind: from the ESE (110 degrees) at 5 MPH (4 KT):0
Visibility: 10 mile(s):0
Sky conditions: overcast
Temperature: 50.0 F (10.0 C)
Dew Point: 46.0 F (7.8 C)
Relative Humidity: 86%
Pressure (altimeter): 30.03 in. Hg (1016 hPa)
Pressure tendency: 0.04 inches (1.4 hPa) lower than three hours ago
ob: KLWV 280253Z AUTO 11004KT 10SM OVC013 10/08 A3003 RMK AO2 SLP169 T01000078 56014
cycle: 3

Station Type Date Time Source
KLWV TAF UTC NOAA

Error!

Example: see airport list